PWSweather.com
Personal Weather Stations
Station Observations
01979
Ravne Pri CerknemSI 5282

Ravne Pri CerknemSI 5282

Lat: 46.1213916, Lon: 13.952774299999987

Elevation: 2244.094488

Station Type: Techo Line WS2307

www.vremenska.postaja.andre.si/

High Low Average
Temperature 55.9°F13.3°C 28.9°F-1.7°C 40.4°F4.7°C
Dew Point 38.1°F3.4°C 11.9°F-11.2°C 25.5°F-3.6°C
Winds 12.1 mph 19.5 kmh Calm Calm 3.0 mph ESE4.8 kmh ESE
Wind Gusts 12.8 mph20.6 kmh -- 6.0 mph9.7 kmh
Humidity 68% 46% 55%
Pressure 30.60 in1036.2 mb 30.48 in1032.2 mb -
Precipitation 0.00 in0.0 mm - -
Hour Temp Dew Point Humidity Winds Wind Gusts Pressure Precip Precip Rate Daily Precip Total
12:00 AM 30.2°F-1.0°C 11.9°F-11.2°C 46% 1.9 mph ESE3.1 kmh ESE 4.0 mph6.4 kmh 30.60 in1036.2 mb 0.00 in0.0 mm 0.00 in0.0 mm 0.00 in0.0 mm
12:10 AM 30.4°F-0.9°C 12.0°F-11.1°C 46% 3.0 mph ESE4.8 kmh ESE 6.9 mph11.1 kmh 30.59 in1035.9 mb 0.00 in0.0 mm 0.00 in0.0 mm 0.00 in0.0 mm
12:20 AM 30.2°F-1.0°C 11.9°F-11.2°C 46% 1.4 mph E2.3 kmh E 5.6 mph9.0 kmh 30.59 in1035.9 mb 0.00 in0.0 mm 0.00 in0.0 mm 0.00 in0.0 mm
12:30 AM 30.2°F-1.0°C 11.9°F-11.2°C 46% 0.8 mph E1.3 kmh E 4.3 mph6.9 kmh 30.60 in1036.2 mb 0.00 in0.0 mm 0.00 in0.0 mm 0.00 in0.0 mm
12:40 AM 30.4°F-0.9°C 12.5°F-10.8°C 47% Calm Calm -- 30.60 in1036.2 mb 0.00 in0.0 mm 0.00 in0.0 mm 0.00 in0.0 mm
12:50 AM 30.4°F-0.9°C 12.0°F-11.1°C 46% Calm Calm -- 30.60 in1036.2 mb 0.00 in0.0 mm 0.00 in0.0 mm 0.00 in0.0 mm
01:00 AM 30.2°F-1.0°C 12.4°F-10.9°C 47% 0.2 mph NE0.3 kmh NE 1.1 mph1.8 kmh 30.59 in1035.9 mb 0.00 in0.0 mm 0.00 in0.0 mm 0.00 in0.0 mm
01:10 AM 30.4°F-0.9°C 12.0°F-11.1°C 46% 2.1 mph ESE3.4 kmh ESE 6.9 mph11.1 kmh 30.59 in1035.9 mb 0.00 in0.0 mm 0.00 in0.0 mm 0.00 in0.0 mm
01:20 AM 30.4°F-0.9°C 12.0°F-11.1°C 46% 0.3 mph E0.5 kmh E 2.5 mph4.0 kmh 30.59 in1035.9 mb 0.00 in0.0 mm 0.00 in0.0 mm 0.00 in0.0 mm
01:30 AM 30.4°F-0.9°C 12.0°F-11.1°C 46% 0.7 mph E1.1 kmh E 3.1 mph5.0 kmh 30.59 in1035.9 mb 0.00 in0.0 mm 0.00 in0.0 mm 0.00 in0.0 mm
01:40 AM 30.4°F-0.9°C 12.0°F-11.1°C 46% 0.4 mph SE0.6 kmh SE 4.5 mph7.2 kmh 30.59 in1035.9 mb 0.00 in0.0 mm 0.00 in0.0 mm 0.00 in0.0 mm
01:50 AM 30.4°F-0.9°C 12.0°F-11.1°C 46% 2.0 mph SE3.2 kmh SE 4.5 mph7.2 kmh 30.58 in1035.6 mb 0.00 in0.0 mm 0.00 in0.0 mm 0.00 in0.0 mm
02:00 AM 30.2°F-1.0°C 11.9°F-11.2°C 46% 0.2 mph SSE0.3 kmh SSE 0.4 mph0.6 kmh 30.58 in1035.6 mb 0.00 in0.0 mm 0.00 in0.0 mm 0.00 in0.0 mm
02:05 AM 30.4°F-0.9°C 12.0°F-11.1°C 46% 0.1 mph 0.2 kmh -- 30.59 in1035.9 mb 0.00 in0.0 mm 0.00 in0.0 mm 0.00 in0.0 mm
02:10 AM 30.4°F-0.9°C 12.0°F-11.1°C 46% 1.8 mph E2.9 kmh E 4.0 mph6.4 kmh 30.58 in1035.6 mb 0.00 in0.0 mm 0.00 in0.0 mm 0.00 in0.0 mm
02:20 AM 30.2°F-1.0°C 11.9°F-11.2°C 46% 2.8 mph SE4.5 kmh SE 5.4 mph8.7 kmh 30.58 in1035.6 mb 0.00 in0.0 mm 0.00 in0.0 mm 0.00 in0.0 mm
02:30 AM 30.0°F-1.1°C 12.2°F-11.0°C 47% Calm Calm -- 30.58 in1035.6 mb 0.00 in0.0 mm 0.00 in0.0 mm 0.00 in0.0 mm
02:40 AM 30.2°F-1.0°C 12.4°F-10.9°C 47% 5.6 mph ESE9.0 kmh ESE 8.3 mph13.4 kmh 30.59 in1035.9 mb 0.00 in0.0 mm 0.00 in0.0 mm 0.00 in0.0 mm
02:50 AM 30.0°F-1.1°C 12.2°F-11.0°C 47% 3.3 mph E5.3 kmh E 9.2 mph14.8 kmh 30.59 in1035.9 mb 0.00 in0.0 mm 0.00 in0.0 mm 0.00 in0.0 mm
03:00 AM 30.0°F-1.1°C 12.2°F-11.0°C 47% 2.1 mph SE3.4 kmh SE 6.5 mph10.5 kmh 30.58 in1035.6 mb 0.00 in0.0 mm 0.00 in0.0 mm 0.00 in0.0 mm
03:10 AM 30.0°F-1.1°C 12.2°F-11.0°C 47% 1.9 mph ESE3.1 kmh ESE 7.6 mph12.2 kmh 30.58 in1035.6 mb 0.00 in0.0 mm 0.00 in0.0 mm 0.00 in0.0 mm
03:20 AM 29.8°F-1.2°C 12.0°F-11.1°C 47% Calm Calm -- 30.57 in1035.2 mb 0.00 in0.0 mm 0.00 in0.0 mm 0.00 in0.0 mm
03:30 AM 29.8°F-1.2°C 12.5°F-10.8°C 48% 2.1 mph ESE3.4 kmh ESE 5.4 mph8.7 kmh 30.57 in1035.2 mb 0.00 in0.0 mm 0.00 in0.0 mm 0.00 in0.0 mm
03:40 AM 29.7°F-1.3°C 12.3°F-10.9°C 48% 1.4 mph ESE2.3 kmh ESE 4.3 mph6.9 kmh 30.57 in1035.2 mb 0.00 in0.0 mm 0.00 in0.0 mm 0.00 in0.0 mm
03:50 AM 29.8°F-1.2°C 12.5°F-10.8°C 48% 0.2 mph SE0.3 kmh SE 6.3 mph10.1 kmh 30.57 in1035.2 mb 0.00 in0.0 mm 0.00 in0.0 mm 0.00 in0.0 mm
04:00 AM 30.0°F-1.1°C 12.7°F-10.7°C 48% 6.1 mph ESE9.8 kmh ESE 7.8 mph12.6 kmh 30.57 in1035.2 mb 0.00 in0.0 mm 0.00 in0.0 mm 0.00 in0.0 mm
04:10 AM 30.0°F-1.1°C 12.7°F-10.7°C 48% 0.8 mph ESE1.3 kmh ESE 4.0 mph6.4 kmh 30.57 in1035.2 mb 0.00 in0.0 mm 0.00 in0.0 mm 0.00 in0.0 mm
04:20 AM 30.0°F-1.1°C 12.7°F-10.7°C 48% 3.4 mph ESE5.5 kmh ESE 6.3 mph10.1 kmh 30.56 in1034.9 mb 0.00 in0.0 mm 0.00 in0.0 mm 0.00 in0.0 mm
04:30 AM 29.8°F-1.2°C 13.0°F-10.6°C 49% 3.5 mph E5.6 kmh E 6.5 mph10.5 kmh 30.56 in1034.9 mb 0.00 in0.0 mm 0.00 in0.0 mm 0.00 in0.0 mm
04:40 AM 29.8°F-1.2°C 13.0°F-10.6°C 49% 1.3 mph ESE2.1 kmh ESE 4.9 mph7.9 kmh 30.56 in1034.9 mb 0.00 in0.0 mm 0.00 in0.0 mm 0.00 in0.0 mm
04:50 AM 29.5°F-1.4°C 12.6°F-10.8°C 49% 0.1 mph ESE0.2 kmh ESE 1.8 mph2.9 kmh 30.56 in1034.9 mb 0.00 in0.0 mm 0.00 in0.0 mm 0.00 in0.0 mm
05:00 AM 28.9°F-1.7°C 12.6°F-10.8°C 50% 0.3 mph ESE0.5 kmh ESE 1.8 mph2.9 kmh 30.56 in1034.9 mb 0.00 in0.0 mm 0.00 in0.0 mm 0.00 in0.0 mm
05:10 AM 29.8°F-1.2°C 13.4°F-10.3°C 50% 4.1 mph SE6.6 kmh SE 5.8 mph9.3 kmh 30.56 in1034.9 mb 0.00 in0.0 mm 0.00 in0.0 mm 0.00 in0.0 mm
05:20 AM 29.8°F-1.2°C 13.9°F-10.1°C 51% 2.6 mph ESE4.2 kmh ESE 6.7 mph10.8 kmh 30.55 in1034.5 mb 0.00 in0.0 mm 0.00 in0.0 mm 0.00 in0.0 mm
05:30 AM 29.8°F-1.2°C 13.9°F-10.1°C 51% 3.6 mph ESE5.8 kmh ESE 7.4 mph11.9 kmh 30.55 in1034.5 mb 0.00 in0.0 mm 0.00 in0.0 mm 0.00 in0.0 mm
05:40 AM 30.6°F-0.8°C 15.0°F-9.4°C 52% 5.6 mph E9.0 kmh E 8.9 mph14.3 kmh 30.55 in1034.5 mb 0.00 in0.0 mm 0.00 in0.0 mm 0.00 in0.0 mm
05:50 AM 30.7°F-0.7°C 15.2°F-9.3°C 52% 7.3 mph SE11.7 kmh SE 8.9 mph14.3 kmh 30.55 in1034.5 mb 0.00 in0.0 mm 0.00 in0.0 mm 0.00 in0.0 mm
06:00 AM 30.9°F-0.6°C 15.8°F-9.0°C 53% 7.1 mph ESE11.4 kmh ESE 7.6 mph12.2 kmh 30.54 in1034.2 mb 0.00 in0.0 mm 0.00 in0.0 mm 0.00 in0.0 mm
06:10 AM 30.7°F-0.7°C 15.6°F-9.1°C 53% 3.4 mph ESE5.5 kmh ESE 6.9 mph11.1 kmh 30.54 in1034.2 mb 0.00 in0.0 mm 0.00 in0.0 mm 0.00 in0.0 mm
06:20 AM 30.9°F-0.6°C 16.6°F-8.6°C 55% 4.0 mph ESE6.4 kmh ESE 8.3 mph13.4 kmh 30.54 in1034.2 mb 0.00 in0.0 mm 0.00 in0.0 mm 0.00 in0.0 mm
06:30 AM 30.9°F-0.6°C 17.0°F-8.3°C 56% 5.9 mph SE9.5 kmh SE 8.3 mph13.4 kmh 30.55 in1034.5 mb 0.00 in0.0 mm 0.00 in0.0 mm 0.00 in0.0 mm
06:40 AM 30.9°F-0.6°C 17.9°F-7.8°C 58% 7.2 mph SE11.6 kmh SE 10.1 mph16.3 kmh 30.54 in1034.2 mb 0.00 in0.0 mm 0.00 in0.0 mm 0.00 in0.0 mm
06:50 AM 30.9°F-0.6°C 18.3°F-7.6°C 59% 7.0 mph ESE11.3 kmh ESE 10.1 mph16.3 kmh 30.54 in1034.2 mb 0.00 in0.0 mm 0.00 in0.0 mm 0.00 in0.0 mm
07:00 AM 31.3°F-0.4°C 19.4°F-7.0°C 61% 4.8 mph ESE7.7 kmh ESE 7.4 mph11.9 kmh 30.54 in1034.2 mb 0.00 in0.0 mm 0.00 in0.0 mm 0.00 in0.0 mm
07:10 AM 31.1°F-0.5°C 19.6°F-6.9°C 62% 5.8 mph SE9.3 kmh SE 8.3 mph13.4 kmh 30.54 in1034.2 mb 0.00 in0.0 mm 0.00 in0.0 mm 0.00 in0.0 mm
07:20 AM 31.8°F-0.1°C 21.0°F-6.1°C 64% 7.6 mph E12.2 kmh E 10.5 mph16.9 kmh 30.54 in1034.2 mb 0.00 in0.0 mm 0.00 in0.0 mm 0.00 in0.0 mm
07:30 AM 31.8°F-0.1°C 21.0°F-6.1°C 64% 5.4 mph ESE8.7 kmh ESE 7.8 mph12.6 kmh 30.55 in1034.5 mb 0.00 in0.0 mm 0.00 in0.0 mm 0.00 in0.0 mm
07:40 AM 32.4°F0.2°C 21.5°F-5.8°C 64% 8.1 mph SE13.0 kmh SE 8.7 mph14.0 kmh 30.55 in1034.5 mb 0.00 in0.0 mm 0.00 in0.0 mm 0.00 in0.0 mm
07:50 AM 32.7°F0.4°C 21.9°F-5.6°C 64% 5.7 mph E9.2 kmh E 8.7 mph14.0 kmh 30.54 in1034.2 mb 0.00 in0.0 mm 0.00 in0.0 mm 0.00 in0.0 mm
08:00 AM 32.4°F0.2°C 21.2°F-6.0°C 63% 3.3 mph SE5.3 kmh SE 6.7 mph10.8 kmh 30.55 in1034.5 mb 0.00 in0.0 mm 0.00 in0.0 mm 0.00 in0.0 mm
08:10 AM 32.5°F0.3°C 21.3°F-5.9°C 63% 1.1 mph SSE1.8 kmh SSE 5.6 mph9.0 kmh 30.54 in1034.2 mb 0.00 in0.0 mm 0.00 in0.0 mm 0.00 in0.0 mm
08:20 AM 32.7°F0.4°C 21.5°F-5.8°C 63% 0.3 mph SE0.5 kmh SE 1.6 mph2.6 kmh 30.54 in1034.2 mb 0.00 in0.0 mm 0.00 in0.0 mm 0.00 in0.0 mm
08:30 AM 34.3°F1.3°C 22.7°F-5.2°C 62% Calm Calm -- 30.55 in1034.5 mb 0.00 in0.0 mm 0.00 in0.0 mm 0.00 in0.0 mm
08:40 AM 36.3°F2.4°C 23.3°F-4.8°C 59% 0.6 mph SE1.0 kmh SE 5.4 mph8.7 kmh 30.54 in1034.2 mb 0.00 in0.0 mm 0.00 in0.0 mm 0.00 in0.0 mm
08:50 AM 36.3°F2.4°C 23.3°F-4.8°C 59% 2.5 mph SE4.0 kmh SE 5.4 mph8.7 kmh 30.55 in1034.5 mb 0.00 in0.0 mm 0.00 in0.0 mm 0.00 in0.0 mm
09:00 AM 37.6°F3.1°C 24.1°F-4.4°C 58% 1.5 mph SE2.4 kmh SE 3.6 mph5.8 kmh 30.54 in1034.2 mb 0.00 in0.0 mm 0.00 in0.0 mm 0.00 in0.0 mm
09:10 AM 39.4°F4.1°C 25.4°F-3.7°C 57% 1.0 mph SSE1.6 kmh SSE 4.7 mph7.6 kmh 30.54 in1034.2 mb 0.00 in0.0 mm 0.00 in0.0 mm 0.00 in0.0 mm
09:20 AM 39.4°F4.1°C 25.0°F-3.9°C 56% 1.3 mph S2.1 kmh S 3.4 mph5.5 kmh 30.54 in1034.2 mb 0.00 in0.0 mm 0.00 in0.0 mm 0.00 in0.0 mm
09:30 AM 41.0°F5.0°C 25.6°F-3.6°C 54% Calm Calm -- 30.55 in1034.5 mb 0.00 in0.0 mm 0.00 in0.0 mm 0.00 in0.0 mm
09:40 AM 41.7°F5.4°C 26.3°F-3.2°C 54% 0.9 mph N1.4 kmh N 4.9 mph7.9 kmh 30.54 in1034.2 mb 0.00 in0.0 mm 0.00 in0.0 mm 0.00 in0.0 mm
09:50 AM 43.0°F6.1°C 27.9°F-2.3°C 55% 1.6 mph S2.6 kmh S 4.5 mph7.2 kmh 30.54 in1034.2 mb 0.00 in0.0 mm 0.00 in0.0 mm 0.00 in0.0 mm
10:00 AM 42.6°F5.9°C 27.1°F-2.7°C 54% 1.3 mph SSE2.1 kmh SSE 4.5 mph7.2 kmh 30.54 in1034.2 mb 0.00 in0.0 mm 0.00 in0.0 mm 0.00 in0.0 mm
10:10 AM 44.4°F6.9°C 28.3°F-2.1°C 53% 0.8 mph S1.3 kmh S 3.8 mph6.1 kmh 30.54 in1034.2 mb 0.00 in0.0 mm 0.00 in0.0 mm 0.00 in0.0 mm
10:20 AM 44.2°F6.8°C 27.7°F-2.4°C 52% Calm Calm -- 30.54 in1034.2 mb 0.00 in0.0 mm 0.00 in0.0 mm 0.00 in0.0 mm
10:30 AM 45.3°F7.4°C 29.2°F-1.6°C 53% Calm Calm -- 30.55 in1034.5 mb 0.00 in0.0 mm 0.00 in0.0 mm 0.00 in0.0 mm
10:40 AM 46.2°F7.9°C 29.1°F-1.6°C 51% 2.2 mph ESE3.5 kmh ESE 7.4 mph11.9 kmh 30.54 in1034.2 mb 0.00 in0.0 mm 0.00 in0.0 mm 0.00 in0.0 mm
10:50 AM 46.2°F7.9°C 29.5°F-1.4°C 52% 2.7 mph ESE4.3 kmh ESE 6.3 mph10.1 kmh 30.54 in1034.2 mb 0.00 in0.0 mm 0.00 in0.0 mm 0.00 in0.0 mm
11:00 AM 46.0°F7.8°C 28.9°F-1.7°C 51% 5.9 mph ESE9.5 kmh ESE 6.3 mph10.1 kmh 30.55 in1034.5 mb 0.00 in0.0 mm 0.00 in0.0 mm 0.00 in0.0 mm
11:10 AM 47.3°F8.5°C 30.5°F-0.8°C 52% 2.5 mph SE4.0 kmh SE 6.3 mph10.1 kmh 30.55 in1034.5 mb 0.00 in0.0 mm 0.00 in0.0 mm 0.00 in0.0 mm
11:20 AM 48.4°F9.1°C 30.6°F-0.8°C 50% 4.5 mph SSE7.2 kmh SSE 7.4 mph11.9 kmh 30.55 in1034.5 mb 0.00 in0.0 mm 0.00 in0.0 mm 0.00 in0.0 mm
11:30 AM 48.4°F9.1°C 31.1°F-0.5°C 51% 7.0 mph SSE11.3 kmh SSE 7.8 mph12.6 kmh 30.55 in1034.5 mb 0.00 in0.0 mm 0.00 in0.0 mm 0.00 in0.0 mm
11:40 AM 50.2°F10.1°C 32.2°F0.1°C 50% 4.8 mph SE7.7 kmh SE 7.8 mph12.6 kmh 30.55 in1034.5 mb 0.00 in0.0 mm 0.00 in0.0 mm 0.00 in0.0 mm
11:50 AM 51.1°F10.6°C 33.6°F0.9°C 51% 3.9 mph ESE6.3 kmh ESE 6.3 mph10.1 kmh 30.55 in1034.5 mb 0.00 in0.0 mm 0.00 in0.0 mm 0.00 in0.0 mm
12:00 PM 51.6°F10.9°C 33.6°F0.9°C 50% 3.7 mph S6.0 kmh S 8.1 mph13.0 kmh 30.55 in1034.5 mb 0.00 in0.0 mm 0.00 in0.0 mm 0.00 in0.0 mm
12:10 PM 52.0°F11.1°C 33.4°F0.8°C 49% 2.4 mph S3.9 kmh S 5.4 mph8.7 kmh 30.54 in1034.2 mb 0.00 in0.0 mm 0.00 in0.0 mm 0.00 in0.0 mm
12:20 PM 50.2°F10.1°C 32.7°F0.4°C 51% 6.2 mph S10.0 kmh S 11.6 mph18.7 kmh 30.54 in1034.2 mb 0.00 in0.0 mm 0.00 in0.0 mm 0.00 in0.0 mm
12:30 PM 50.7°F10.4°C 33.2°F0.7°C 51% 6.8 mph S10.9 kmh S 10.5 mph16.9 kmh 30.54 in1034.2 mb 0.00 in0.0 mm 0.00 in0.0 mm 0.00 in0.0 mm
12:40 PM 52.0°F11.1°C 34.4°F1.3°C 51% 7.7 mph S12.4 kmh S 11.9 mph19.2 kmh 30.54 in1034.2 mb 0.00 in0.0 mm 0.00 in0.0 mm 0.00 in0.0 mm
12:50 PM 51.1°F10.6°C 34.1°F1.2°C 52% 3.3 mph SSE5.3 kmh SSE 6.0 mph9.7 kmh 30.54 in1034.2 mb 0.00 in0.0 mm 0.00 in0.0 mm 0.00 in0.0 mm
01:00 PM 52.3°F11.3°C 34.7°F1.5°C 51% 3.6 mph SSE5.8 kmh SSE 12.8 mph20.6 kmh 30.53 in1033.9 mb 0.00 in0.0 mm 0.00 in0.0 mm 0.00 in0.0 mm
01:10 PM 53.2°F11.8°C 35.6°F2.0°C 51% 8.5 mph SSE13.7 kmh SSE 10.5 mph16.9 kmh 30.53 in1033.9 mb 0.00 in0.0 mm 0.00 in0.0 mm 0.00 in0.0 mm
01:20 PM 53.4°F11.9°C 35.2°F1.8°C 50% 5.8 mph S9.3 kmh S 7.8 mph12.6 kmh 30.52 in1033.5 mb 0.00 in0.0 mm 0.00 in0.0 mm 0.00 in0.0 mm
01:30 PM 52.7°F11.5°C 35.1°F1.7°C 51% 6.1 mph S9.8 kmh S 7.8 mph12.6 kmh 30.52 in1033.5 mb 0.00 in0.0 mm 0.00 in0.0 mm 0.00 in0.0 mm
01:40 PM 51.1°F10.6°C 34.1°F1.2°C 52% 5.5 mph S8.9 kmh S 10.3 mph16.6 kmh 30.52 in1033.5 mb 0.00 in0.0 mm 0.00 in0.0 mm 0.00 in0.0 mm
01:50 PM 52.3°F11.3°C 35.7°F2.1°C 53% 5.3 mph S8.5 kmh S 7.8 mph12.6 kmh 30.51 in1033.2 mb 0.00 in0.0 mm 0.00 in0.0 mm 0.00 in0.0 mm
02:00 PM 52.5°F11.4°C 35.4°F1.9°C 52% 2.4 mph S3.9 kmh S 7.8 mph12.6 kmh 30.51 in1033.2 mb 0.00 in0.0 mm 0.00 in0.0 mm 0.00 in0.0 mm
02:10 PM 52.5°F11.4°C 35.4°F1.9°C 52% 7.8 mph SSW12.6 kmh SSW 7.8 mph12.6 kmh 30.50 in1032.8 mb 0.00 in0.0 mm 0.00 in0.0 mm 0.00 in0.0 mm
02:20 PM 52.5°F11.4°C 35.9°F2.2°C 53% 5.7 mph SW9.2 kmh SW 7.8 mph12.6 kmh 30.50 in1032.8 mb 0.00 in0.0 mm 0.00 in0.0 mm 0.00 in0.0 mm
02:30 PM 54.0°F12.2°C 37.2°F2.9°C 53% 2.1 mph SW3.4 kmh SW 4.9 mph7.9 kmh 30.51 in1033.2 mb 0.00 in0.0 mm 0.00 in0.0 mm 0.00 in0.0 mm
02:40 PM 54.9°F12.7°C 38.0°F3.3°C 53% 1.6 mph ESE2.6 kmh ESE 4.7 mph7.6 kmh 30.50 in1032.8 mb 0.00 in0.0 mm 0.00 in0.0 mm 0.00 in0.0 mm
02:50 PM 55.2°F12.9°C 37.9°F3.3°C 52% 3.2 mph SE5.1 kmh SE 11.9 mph19.2 kmh 30.50 in1032.8 mb 0.00 in0.0 mm 0.00 in0.0 mm 0.00 in0.0 mm
03:00 PM 55.9°F13.3°C 38.1°F3.4°C 51% 2.9 mph S4.7 kmh S 11.9 mph19.2 kmh 30.50 in1032.8 mb 0.00 in0.0 mm 0.00 in0.0 mm 0.00 in0.0 mm
03:10 PM 54.3°F12.4°C 36.6°F2.6°C 51% 4.4 mph S7.1 kmh S 8.9 mph14.3 kmh 30.51 in1033.2 mb 0.00 in0.0 mm 0.00 in0.0 mm 0.00 in0.0 mm
03:20 PM 54.1°F12.3°C 36.9°F2.7°C 52% 11.4 mph S18.3 kmh S 12.1 mph19.5 kmh 30.51 in1033.2 mb 0.00 in0.0 mm 0.00 in0.0 mm 0.00 in0.0 mm
03:30 PM 54.1°F12.3°C 36.9°F2.7°C 52% 12.1 mph S19.5 kmh S 12.1 mph19.5 kmh 30.50 in1032.8 mb 0.00 in0.0 mm 0.00 in0.0 mm 0.00 in0.0 mm
03:40 PM 54.1°F12.3°C 36.9°F2.7°C 52% 12.1 mph S19.5 kmh S 12.1 mph19.5 kmh 30.50 in1032.8 mb 0.00 in0.0 mm 0.00 in0.0 mm 0.00 in0.0 mm
03:50 PM 53.8°F12.1°C 36.6°F2.6°C 52% 4.0 mph ENE6.4 kmh ENE 4.0 mph6.4 kmh 30.50 in1032.8 mb 0.00 in0.0 mm 0.00 in0.0 mm 0.00 in0.0 mm
04:00 PM 53.8°F12.1°C 36.6°F2.6°C 52% 8.1 mph E13.0 kmh E 8.9 mph14.3 kmh 30.50 in1032.8 mb 0.00 in0.0 mm 0.00 in0.0 mm 0.00 in0.0 mm
04:10 PM 51.8°F11.0°C 35.2°F1.8°C 53% 5.9 mph E9.5 kmh E 8.9 mph14.3 kmh 30.50 in1032.8 mb 0.00 in0.0 mm 0.00 in0.0 mm 0.00 in0.0 mm
04:20 PM 52.0°F11.1°C 35.4°F1.9°C 53% 3.5 mph E5.6 kmh E 7.6 mph12.2 kmh 30.49 in1032.5 mb 0.00 in0.0 mm 0.00 in0.0 mm 0.00 in0.0 mm
04:30 PM 51.6°F10.9°C 35.5°F1.9°C 54% 3.1 mph ESE5.0 kmh ESE 6.7 mph10.8 kmh 30.50 in1032.8 mb 0.00 in0.0 mm 0.00 in0.0 mm 0.00 in0.0 mm
04:40 PM 51.4°F10.8°C 35.3°F1.8°C 54% 4.8 mph E7.7 kmh E 6.9 mph11.1 kmh 30.50 in1032.8 mb 0.00 in0.0 mm 0.00 in0.0 mm 0.00 in0.0 mm
04:50 PM 50.7°F10.4°C 34.7°F1.5°C 54% 3.5 mph E5.6 kmh E 6.9 mph11.1 kmh 30.50 in1032.8 mb 0.00 in0.0 mm 0.00 in0.0 mm 0.00 in0.0 mm
05:00 PM 50.5°F10.3°C 35.0°F1.7°C 55% 7.4 mph E11.9 kmh E 8.1 mph13.0 kmh 30.50 in1032.8 mb 0.00 in0.0 mm 0.00 in0.0 mm 0.00 in0.0 mm
05:10 PM 50.2°F10.1°C 35.1°F1.7°C 56% 4.8 mph E7.7 kmh E 6.9 mph11.1 kmh 30.50 in1032.8 mb 0.00 in0.0 mm 0.00 in0.0 mm 0.00 in0.0 mm
05:20 PM 49.3°F9.6°C 34.2°F1.2°C 56% 5.7 mph E9.2 kmh E 7.6 mph12.2 kmh 30.50 in1032.8 mb 0.00 in0.0 mm 0.00 in0.0 mm 0.00 in0.0 mm
05:30 PM 48.0°F8.9°C 33.5°F0.8°C 57% 7.8 mph E12.6 kmh E 11.6 mph18.7 kmh 30.50 in1032.8 mb 0.00 in0.0 mm 0.00 in0.0 mm 0.00 in0.0 mm
05:40 PM 47.7°F8.7°C 33.2°F0.7°C 57% 10.4 mph ESE16.7 kmh ESE 12.3 mph19.8 kmh 30.51 in1033.2 mb 0.00 in0.0 mm 0.00 in0.0 mm 0.00 in0.0 mm
05:50 PM 47.3°F8.5°C 33.3°F0.7°C 58% 11.2 mph E18.0 kmh E 11.9 mph19.2 kmh 30.51 in1033.2 mb 0.00 in0.0 mm 0.00 in0.0 mm 0.00 in0.0 mm
06:00 PM 46.6°F8.1°C 33.0°F0.6°C 59% 8.9 mph ESE14.3 kmh ESE 11.2 mph18.0 kmh 30.51 in1033.2 mb 0.00 in0.0 mm 0.00 in0.0 mm 0.00 in0.0 mm
06:10 PM 46.0°F7.8°C 32.5°F0.3°C 59% 9.7 mph ESE15.6 kmh ESE 12.1 mph19.5 kmh 30.50 in1032.8 mb 0.00 in0.0 mm 0.00 in0.0 mm 0.00 in0.0 mm
06:20 PM 45.3°F7.4°C 32.2°F0.1°C 60% 10.1 mph ESE16.3 kmh ESE 11.6 mph18.7 kmh 30.50 in1032.8 mb 0.00 in0.0 mm 0.00 in0.0 mm 0.00 in0.0 mm
06:30 PM 45.0°F7.2°C 31.9°F-0.1°C 60% 6.5 mph ESE10.5 kmh ESE 8.1 mph13.0 kmh 30.50 in1032.8 mb 0.00 in0.0 mm 0.00 in0.0 mm 0.00 in0.0 mm
06:40 PM 44.4°F6.9°C 31.8°F-0.1°C 61% 8.7 mph ESE14.0 kmh ESE 10.7 mph17.2 kmh 30.50 in1032.8 mb 0.00 in0.0 mm 0.00 in0.0 mm 0.00 in0.0 mm
06:50 PM 44.4°F6.9°C 31.8°F-0.1°C 61% 7.2 mph E11.6 kmh E 9.6 mph15.4 kmh 30.51 in1033.2 mb 0.00 in0.0 mm 0.00 in0.0 mm 0.00 in0.0 mm
07:00 PM 44.1°F6.7°C 31.5°F-0.3°C 61% 4.6 mph ESE7.4 kmh ESE 7.2 mph11.6 kmh 30.50 in1032.8 mb 0.00 in0.0 mm 0.00 in0.0 mm 0.00 in0.0 mm
07:10 PM 43.9°F6.6°C 31.3°F-0.4°C 61% 4.8 mph SE7.7 kmh SE 6.7 mph10.8 kmh 30.50 in1032.8 mb 0.00 in0.0 mm 0.00 in0.0 mm 0.00 in0.0 mm
07:20 PM 43.0°F6.1°C 30.8°F-0.7°C 62% 4.5 mph S7.2 kmh S 8.3 mph13.4 kmh 30.52 in1033.5 mb 0.00 in0.0 mm 0.00 in0.0 mm 0.00 in0.0 mm
07:30 PM 42.6°F5.9°C 30.9°F-0.6°C 63% 5.4 mph S8.7 kmh S 8.1 mph13.0 kmh 30.52 in1033.5 mb 0.00 in0.0 mm 0.00 in0.0 mm 0.00 in0.0 mm
07:40 PM 42.4°F5.8°C 30.7°F-0.7°C 63% 5.4 mph SE8.7 kmh SE 8.1 mph13.0 kmh 30.51 in1033.2 mb 0.00 in0.0 mm 0.00 in0.0 mm 0.00 in0.0 mm
07:50 PM 42.1°F5.6°C 30.4°F-0.9°C 63% 5.9 mph SE9.5 kmh SE 6.9 mph11.1 kmh 30.51 in1033.2 mb 0.00 in0.0 mm 0.00 in0.0 mm 0.00 in0.0 mm
08:00 PM 42.1°F5.6°C 30.4°F-0.9°C 63% 2.3 mph SE3.7 kmh SE 4.9 mph7.9 kmh 30.50 in1032.8 mb 0.00 in0.0 mm 0.00 in0.0 mm 0.00 in0.0 mm
08:10 PM 41.9°F5.5°C 30.2°F-1.0°C 63% 0.2 mph SE0.3 kmh SE 1.1 mph1.8 kmh 30.50 in1032.8 mb 0.00 in0.0 mm 0.00 in0.0 mm 0.00 in0.0 mm
08:20 PM 40.8°F4.9°C 29.6°F-1.3°C 64% 1.8 mph S2.9 kmh S 5.6 mph9.0 kmh 30.50 in1032.8 mb 0.00 in0.0 mm 0.00 in0.0 mm 0.00 in0.0 mm
08:30 PM 41.2°F5.1°C 29.9°F-1.2°C 64% 1.5 mph S2.4 kmh S 5.6 mph9.0 kmh 30.50 in1032.8 mb 0.00 in0.0 mm 0.00 in0.0 mm 0.00 in0.0 mm
08:40 PM 40.8°F4.9°C 29.6°F-1.3°C 64% 0.7 mph SE1.1 kmh SE 3.1 mph5.0 kmh 30.50 in1032.8 mb 0.00 in0.0 mm 0.00 in0.0 mm 0.00 in0.0 mm
08:50 PM 40.6°F4.8°C 29.8°F-1.2°C 65% Calm Calm -- 30.50 in1032.8 mb 0.00 in0.0 mm 0.00 in0.0 mm 0.00 in0.0 mm
09:00 PM 41.2°F5.1°C 30.3°F-0.9°C 65% 0.3 mph NE0.5 kmh NE 1.6 mph2.6 kmh 30.50 in1032.8 mb 0.00 in0.0 mm 0.00 in0.0 mm 0.00 in0.0 mm
09:10 PM 40.8°F4.9°C 30.0°F-1.1°C 65% Calm Calm -- 30.50 in1032.8 mb 0.00 in0.0 mm 0.00 in0.0 mm 0.00 in0.0 mm
09:20 PM 40.5°F4.7°C 29.6°F-1.3°C 65% Calm Calm -- 30.51 in1033.2 mb 0.00 in0.0 mm 0.00 in0.0 mm 0.00 in0.0 mm
09:30 PM 40.3°F4.6°C 29.4°F-1.4°C 65% 1.2 mph ESE1.9 kmh ESE 5.1 mph8.2 kmh 30.50 in1032.8 mb 0.00 in0.0 mm 0.00 in0.0 mm 0.00 in0.0 mm
09:40 PM 40.1°F4.5°C 29.3°F-1.5°C 65% 1.5 mph SE2.4 kmh SE 3.8 mph6.1 kmh 30.50 in1032.8 mb 0.00 in0.0 mm 0.00 in0.0 mm 0.00 in0.0 mm
09:50 PM 40.3°F4.6°C 29.8°F-1.2°C 66% 3.1 mph SE5.0 kmh SE 5.1 mph8.2 kmh 30.51 in1033.2 mb 0.00 in0.0 mm 0.00 in0.0 mm 0.00 in0.0 mm
10:00 PM 40.3°F4.6°C 29.4°F-1.4°C 65% 1.8 mph SE2.9 kmh SE 5.1 mph8.2 kmh 30.50 in1032.8 mb 0.00 in0.0 mm 0.00 in0.0 mm 0.00 in0.0 mm
10:10 PM 39.7°F4.3°C 29.3°F-1.5°C 66% Calm Calm -- 30.50 in1032.8 mb 0.00 in0.0 mm 0.00 in0.0 mm 0.00 in0.0 mm
10:20 PM 39.7°F4.3°C 29.3°F-1.5°C 66% 1.0 mph ESE1.6 kmh ESE 3.6 mph5.8 kmh 30.50 in1032.8 mb 0.00 in0.0 mm 0.00 in0.0 mm 0.00 in0.0 mm
10:30 PM 39.6°F4.2°C 29.1°F-1.6°C 66% 0.3 mph ESE0.5 kmh ESE 2.2 mph3.5 kmh 30.50 in1032.8 mb 0.00 in0.0 mm 0.00 in0.0 mm 0.00 in0.0 mm
10:40 PM 39.4°F4.1°C 29.3°F-1.5°C 67% 0.5 mph SSE0.8 kmh SSE 2.7 mph4.3 kmh 30.49 in1032.5 mb 0.00 in0.0 mm 0.00 in0.0 mm 0.00 in0.0 mm
10:50 PM 39.7°F4.3°C 29.3°F-1.5°C 66% 0.3 mph SE0.5 kmh SE 2.7 mph4.3 kmh 30.49 in1032.5 mb 0.00 in0.0 mm 0.00 in0.0 mm 0.00 in0.0 mm
11:00 PM 39.4°F4.1°C 29.3°F-1.5°C 67% 0.2 mph N0.3 kmh N 1.1 mph1.8 kmh 30.49 in1032.5 mb 0.00 in0.0 mm 0.00 in0.0 mm 0.00 in0.0 mm
11:10 PM 39.4°F4.1°C 29.3°F-1.5°C 67% Calm Calm -- 30.49 in1032.5 mb 0.00 in0.0 mm 0.00 in0.0 mm 0.00 in0.0 mm
11:20 PM 39.0°F3.9°C 29.3°F-1.5°C 68% Calm Calm -- 30.49 in1032.5 mb 0.00 in0.0 mm 0.00 in0.0 mm 0.00 in0.0 mm
11:30 PM 38.8°F3.8°C 29.2°F-1.6°C 68% Calm Calm -- 30.48 in1032.2 mb 0.00 in0.0 mm 0.00 in0.0 mm 0.00 in0.0 mm
11:40 PM 38.8°F3.8°C 29.2°F-1.6°C 68% 0.2 mph N0.3 kmh N 1.1 mph1.8 kmh 30.48 in1032.2 mb 0.00 in0.0 mm 0.00 in0.0 mm 0.00 in0.0 mm
11:50 PM 38.8°F3.8°C 29.2°F-1.6°C 68% Calm Calm -- 30.48 in1032.2 mb 0.00 in0.0 mm 0.00 in0.0 mm 0.00 in0.0 mm